sensor_id;sensor_type;location;lat;lon;timestamp;P1;durP1;ratioP1;P2;durP2;ratioP2
38615;SDS011;24370;51.986;4.666;2023-02-12T00:00:36;30.37;;;14.60;;
38615;SDS011;24370;51.986;4.666;2023-02-12T00:03:02;32.10;;;14.77;;
38615;SDS011;24370;51.986;4.666;2023-02-12T00:05:28;25.70;;;14.37;;
38615;SDS011;24370;51.986;4.666;2023-02-12T00:07:53;24.80;;;13.90;;
38615;SDS011;24370;51.986;4.666;2023-02-12T00:10:19;22.73;;;13.77;;
38615;SDS011;24370;51.986;4.666;2023-02-12T00:12:44;25.87;;;13.63;;
38615;SDS011;24370;51.986;4.666;2023-02-12T00:15:10;24.53;;;12.90;;
38615;SDS011;24370;51.986;4.666;2023-02-12T00:17:35;22.07;;;13.43;;
38615;SDS011;24370;51.986;4.666;2023-02-12T00:20:00;21.13;;;12.07;;
38615;SDS011;24370;51.986;4.666;2023-02-12T00:22:26;21.27;;;13.10;;
38615;SDS011;24370;51.986;4.666;2023-02-12T00:24:53;23.10;;;12.30;;
38615;SDS011;24370;51.986;4.666;2023-02-12T00:27:19;19.40;;;11.07;;
38615;SDS011;24370;51.986;4.666;2023-02-12T00:29:44;20.87;;;11.57;;
38615;SDS011;24370;51.986;4.666;2023-02-12T00:32:09;24.83;;;12.60;;
38615;SDS011;24370;51.986;4.666;2023-02-12T00:34:35;19.13;;;11.37;;
38615;SDS011;24370;51.986;4.666;2023-02-12T00:37:01;21.63;;;12.73;;
38615;SDS011;24370;51.986;4.666;2023-02-12T00:39:26;21.07;;;12.33;;
38615;SDS011;24370;51.986;4.666;2023-02-12T00:41:52;21.30;;;12.17;;
38615;SDS011;24370;51.986;4.666;2023-02-12T00:44:17;25.17;;;12.47;;
38615;SDS011;24370;51.986;4.666;2023-02-12T00:46:43;24.03;;;12.10;;
38615;SDS011;24370;51.986;4.666;2023-02-12T00:49:08;24.23;;;12.17;;
38615;SDS011;24370;51.986;4.666;2023-02-12T00:51:33;21.83;;;12.83;;
38615;SDS011;24370;51.986;4.666;2023-02-12T00:53:59;21.23;;;12.43;;
38615;SDS011;24370;51.986;4.666;2023-02-12T00:56:24;20.17;;;11.43;;
38615;SDS011;24370;51.986;4.666;2023-02-12T00:58:50;20.73;;;12.20;;
38615;SDS011;24370;51.986;4.666;2023-02-12T01:01:15;18.97;;;11.70;;
38615;SDS011;24370;51.986;4.666;2023-02-12T01:03:41;22.63;;;12.40;;
38615;SDS011;24370;51.986;4.666;2023-02-12T01:06:06;24.17;;;12.10;;
38615;SDS011;24370;51.986;4.666;2023-02-12T01:08:32;20.73;;;12.03;;
38615;SDS011;24370;51.986;4.666;2023-02-12T01:10:59;24.83;;;14.23;;
38615;SDS011;24370;51.986;4.666;2023-02-12T01:13:27;23.20;;;13.43;;
38615;SDS011;24370;51.986;4.666;2023-02-12T01:16:01;22.70;;;13.70;;
38615;SDS011;24370;51.986;4.666;2023-02-12T01:18:27;23.92;;;14.15;;
38615;SDS011;24370;51.986;4.666;2023-02-12T01:20:52;24.23;;;13.60;;
38615;SDS011;24370;51.986;4.666;2023-02-12T01:23:17;20.97;;;13.27;;
38615;SDS011;24370;51.986;4.666;2023-02-12T01:25:43;22.00;;;13.00;;
38615;SDS011;24370;51.986;4.666;2023-02-12T01:28:09;21.67;;;12.90;;
38615;SDS011;24370;51.986;4.666;2023-02-12T01:30:35;21.27;;;13.13;;
38615;SDS011;24370;51.986;4.666;2023-02-12T01:33:00;18.87;;;12.07;;
38615;SDS011;24370;51.986;4.666;2023-02-12T01:35:26;21.77;;;12.57;;
38615;SDS011;24370;51.986;4.666;2023-02-12T01:37:51;20.17;;;12.53;;
38615;SDS011;24370;51.986;4.666;2023-02-12T01:40:17;20.60;;;12.37;;
38615;SDS011;24370;51.986;4.666;2023-02-12T01:42:42;21.33;;;12.60;;
38615;SDS011;24370;51.986;4.666;2023-02-12T01:47:37;21.67;;;11.70;;
38615;SDS011;24370;51.986;4.666;2023-02-12T01:50:03;20.73;;;11.80;;
38615;SDS011;24370;51.986;4.666;2023-02-12T01:52:31;19.67;;;12.00;;
38615;SDS011;24370;51.986;4.666;2023-02-12T01:55:03;19.80;;;11.73;;
38615;SDS011;24370;51.986;4.666;2023-02-12T01:57:31;16.80;;;11.87;;
38615;SDS011;24370;51.986;4.666;2023-02-12T01:59:59;18.37;;;12.10;;
38615;SDS011;24370;51.986;4.666;2023-02-12T02:02:27;21.43;;;12.43;;
38615;SDS011;24370;51.986;4.666;2023-02-12T02:04:53;23.50;;;12.63;;
38615;SDS011;24370;51.986;4.666;2023-02-12T02:07:21;18.13;;;12.37;;
38615;SDS011;24370;51.986;4.666;2023-02-12T02:09:47;18.63;;;11.83;;
38615;SDS011;24370;51.986;4.666;2023-02-12T02:12:14;16.33;;;12.03;;
38615;SDS011;24370;51.986;4.666;2023-02-12T02:14:58;17.67;;;11.87;;
38615;SDS011;24370;51.986;4.666;2023-02-12T02:33:27;20.07;;;12.27;;
38615;SDS011;24370;51.986;4.666;2023-02-12T02:36:00;18.33;;;12.77;;
38615;SDS011;24370;51.986;4.666;2023-02-12T02:38:33;19.67;;;13.17;;
38615;SDS011;24370;51.986;4.666;2023-02-12T02:41:45;19.70;;;12.17;;
38615;SDS011;24370;51.986;4.666;2023-02-12T02:43:55;17.53;;;12.40;;
38615;SDS011;24370;51.986;4.666;2023-02-12T02:46:41;16.10;;;11.40;;
38615;SDS011;24370;51.986;4.666;2023-02-12T02:49:13;17.27;;;12.20;;
38615;SDS011;24370;51.986;4.666;2023-02-12T02:56:50;19.90;;;11.60;;
38615;SDS011;24370;51.986;4.666;2023-02-12T02:59:23;19.48;;;12.30;;
38615;SDS011;24370;51.986;4.666;2023-02-12T03:01:58;18.67;;;12.53;;
38615;SDS011;24370;51.986;4.666;2023-02-12T03:04:32;22.23;;;12.20;;
38615;SDS011;24370;51.986;4.666;2023-02-12T03:07:09;24.97;;;12.40;;
38615;SDS011;24370;51.986;4.666;2023-02-12T03:12:09;16.50;;;11.27;;
38615;SDS011;24370;51.986;4.666;2023-02-12T03:14:42;19.97;;;12.07;;
38615;SDS011;24370;51.986;4.666;2023-02-12T03:17:17;18.90;;;13.60;;
38615;SDS011;24370;51.986;4.666;2023-02-12T03:19:50;21.30;;;11.67;;
38615;SDS011;24370;51.986;4.666;2023-02-12T03:22:33;18.07;;;12.33;;
38615;SDS011;24370;51.986;4.666;2023-02-12T03:25:06;19.80;;;12.60;;
38615;SDS011;24370;51.986;4.666;2023-02-12T03:27:42;16.43;;;12.50;;
38615;SDS011;24370;51.986;4.666;2023-02-12T03:35:42;16.43;;;11.50;;
38615;SDS011;24370;51.986;4.666;2023-02-12T03:41:00;21.00;;;13.53;;
38615;SDS011;24370;51.986;4.666;2023-02-12T03:48:34;20.17;;;12.80;;
38615;SDS011;24370;51.986;4.666;2023-02-12T03:51:15;19.25;;;12.13;;
38615;SDS011;24370;51.986;4.666;2023-02-12T03:53:46;17.87;;;11.53;;
38615;SDS011;24370;51.986;4.666;2023-02-12T03:56:21;23.13;;;12.73;;
38615;SDS011;24370;51.986;4.666;2023-02-12T03:58:51;18.93;;;12.47;;
38615;SDS011;24370;51.986;4.666;2023-02-12T04:01:16;20.07;;;12.10;;
38615;SDS011;24370;51.986;4.666;2023-02-12T04:03:42;18.53;;;12.80;;
38615;SDS011;24370;51.986;4.666;2023-02-12T04:06:18;21.23;;;13.07;;
38615;SDS011;24370;51.986;4.666;2023-02-12T04:08:45;21.30;;;12.53;;
38615;SDS011;24370;51.986;4.666;2023-02-12T04:25:08;17.93;;;12.67;;
38615;SDS011;24370;51.986;4.666;2023-02-12T04:27:56;22.47;;;11.80;;
38615;SDS011;24370;51.986;4.666;2023-02-12T04:33:32;18.10;;;11.33;;
38615;SDS011;24370;51.986;4.666;2023-02-12T04:36:08;16.50;;;10.90;;
38615;SDS011;24370;51.986;4.666;2023-02-12T04:38:45;16.80;;;11.23;;
38615;SDS011;24370;51.986;4.666;2023-02-12T04:41:16;20.10;;;11.37;;
38615;SDS011;24370;51.986;4.666;2023-02-12T04:43:42;18.40;;;11.27;;
38615;SDS011;24370;51.986;4.666;2023-02-12T04:46:07;17.40;;;11.10;;
38615;SDS011;24370;51.986;4.666;2023-02-12T04:48:33;18.63;;;11.80;;
38615;SDS011;24370;51.986;4.666;2023-02-12T04:51:01;24.07;;;12.43;;
38615;SDS011;24370;51.986;4.666;2023-02-12T04:53:26;19.80;;;11.27;;
38615;SDS011;24370;51.986;4.666;2023-02-12T04:55:52;18.43;;;11.93;;
38615;SDS011;24370;51.986;4.666;2023-02-12T04:58:18;21.07;;;11.70;;
38615;SDS011;24370;51.986;4.666;2023-02-12T05:00:43;19.30;;;11.10;;
38615;SDS011;24370;51.986;4.666;2023-02-12T05:03:08;21.13;;;12.60;;
38615;SDS011;24370;51.986;4.666;2023-02-12T05:05:34;15.17;;;10.13;;
38615;SDS011;24370;51.986;4.666;2023-02-12T05:07:59;18.03;;;10.83;;
38615;SDS011;24370;51.986;4.666;2023-02-12T05:10:25;17.77;;;11.00;;
38615;SDS011;24370;51.986;4.666;2023-02-12T05:12:51;21.10;;;11.60;;
38615;SDS011;24370;51.986;4.666;2023-02-12T05:15:17;16.20;;;10.77;;
38615;SDS011;24370;51.986;4.666;2023-02-12T05:17:43;19.60;;;10.93;;
38615;SDS011;24370;51.986;4.666;2023-02-12T05:20:09;18.73;;;10.53;;
38615;SDS011;24370;51.986;4.666;2023-02-12T05:22:35;16.87;;;10.97;;
38615;SDS011;24370;51.986;4.666;2023-02-12T05:25:01;17.23;;;10.67;;
38615;SDS011;24370;51.986;4.666;2023-02-12T05:27:26;19.67;;;11.60;;
38615;SDS011;24370;51.986;4.666;2023-02-12T05:29:52;15.73;;;10.13;;
38615;SDS011;24370;51.986;4.666;2023-02-12T05:32:17;16.63;;;10.47;;
38615;SDS011;24370;51.986;4.666;2023-02-12T05:34:42;16.93;;;11.07;;
38615;SDS011;24370;51.986;4.666;2023-02-12T05:37:08;16.00;;;10.20;;
38615;SDS011;24370;51.986;4.666;2023-02-12T05:39:33;16.50;;;10.63;;
38615;SDS011;24370;51.986;4.666;2023-02-12T05:41:59;15.63;;;10.40;;
38615;SDS011;24370;51.986;4.666;2023-02-12T05:44:24;15.07;;;10.70;;
38615;SDS011;24370;51.986;4.666;2023-02-12T05:46:49;17.77;;;10.60;;
38615;SDS011;24370;51.986;4.666;2023-02-12T05:49:15;16.47;;;10.67;;
38615;SDS011;24370;51.986;4.666;2023-02-12T05:51:40;17.33;;;9.87;;
38615;SDS011;24370;51.986;4.666;2023-02-12T05:54:06;17.63;;;10.87;;
38615;SDS011;24370;51.986;4.666;2023-02-12T05:56:35;17.63;;;10.90;;
38615;SDS011;24370;51.986;4.666;2023-02-12T05:59:07;15.10;;;11.13;;
38615;SDS011;24370;51.986;4.666;2023-02-12T06:01:38;17.13;;;10.73;;
38615;SDS011;24370;51.986;4.666;2023-02-12T06:04:06;20.70;;;10.87;;
38615;SDS011;24370;51.986;4.666;2023-02-12T06:06:34;19.17;;;12.00;;
38615;SDS011;24370;51.986;4.666;2023-02-12T06:09:00;18.47;;;10.37;;
38615;SDS011;24370;51.986;4.666;2023-02-12T06:11:26;20.87;;;11.90;;
38615;SDS011;24370;51.986;4.666;2023-02-12T06:13:52;17.80;;;11.07;;
38615;SDS011;24370;51.986;4.666;2023-02-12T06:16:24;19.70;;;12.37;;
38615;SDS011;24370;51.986;4.666;2023-02-12T06:18:53;17.73;;;11.37;;
38615;SDS011;24370;51.986;4.666;2023-02-12T06:21:20;19.33;;;12.03;;
38615;SDS011;24370;51.986;4.666;2023-02-12T06:23:46;20.07;;;12.10;;
38615;SDS011;24370;51.986;4.666;2023-02-12T06:26:12;16.57;;;10.50;;
38615;SDS011;24370;51.986;4.666;2023-02-12T06:28:38;20.17;;;11.10;;
38615;SDS011;24370;51.986;4.666;2023-02-12T06:31:03;18.27;;;11.53;;
38615;SDS011;24370;51.986;4.666;2023-02-12T06:33:29;20.47;;;10.80;;
38615;SDS011;24370;51.986;4.666;2023-02-12T06:35:54;17.53;;;10.67;;
38615;SDS011;24370;51.986;4.666;2023-02-12T06:38:20;20.37;;;11.60;;
38615;SDS011;24370;51.986;4.666;2023-02-12T06:40:45;19.27;;;11.77;;
38615;SDS011;24370;51.986;4.666;2023-02-12T06:43:11;18.13;;;11.23;;
38615;SDS011;24370;51.986;4.666;2023-02-12T06:45:36;21.57;;;11.83;;
38615;SDS011;24370;51.986;4.666;2023-02-12T06:48:02;18.77;;;11.10;;
38615;SDS011;24370;51.986;4.666;2023-02-12T06:50:28;19.10;;;11.83;;
38615;SDS011;24370;51.986;4.666;2023-02-12T06:52:53;19.07;;;11.60;;
38615;SDS011;24370;51.986;4.666;2023-02-12T06:55:19;18.87;;;11.23;;
38615;SDS011;24370;51.986;4.666;2023-02-12T06:57:44;17.33;;;11.27;;
38615;SDS011;24370;51.986;4.666;2023-02-12T07:00:10;20.60;;;11.10;;
38615;SDS011;24370;51.986;4.666;2023-02-12T07:02:36;18.00;;;11.07;;
38615;SDS011;24370;51.986;4.666;2023-02-12T07:05:01;20.43;;;11.53;;
38615;SDS011;24370;51.986;4.666;2023-02-12T07:07:27;15.80;;;10.40;;
38615;SDS011;24370;51.986;4.666;2023-02-12T07:09:52;18.23;;;11.30;;
38615;SDS011;24370;51.986;4.666;2023-02-12T07:12:17;18.50;;;10.83;;
38615;SDS011;24370;51.986;4.666;2023-02-12T07:14:43;17.33;;;11.10;;
38615;SDS011;24370;51.986;4.666;2023-02-12T07:17:08;20.00;;;11.27;;
38615;SDS011;24370;51.986;4.666;2023-02-12T07:19:34;19.83;;;11.50;;
38615;SDS011;24370;51.986;4.666;2023-02-12T07:22:00;18.70;;;11.20;;
38615;SDS011;24370;51.986;4.666;2023-02-12T07:24:25;18.70;;;12.03;;
38615;SDS011;24370;51.986;4.666;2023-02-12T07:26:51;19.40;;;12.07;;
38615;SDS011;24370;51.986;4.666;2023-02-12T07:29:16;20.77;;;11.17;;
38615;SDS011;24370;51.986;4.666;2023-02-12T07:31:42;16.73;;;11.07;;
38615;SDS011;24370;51.986;4.666;2023-02-12T07:34:08;17.73;;;11.47;;
38615;SDS011;24370;51.986;4.666;2023-02-12T07:36:34;19.87;;;11.97;;
38615;SDS011;24370;51.986;4.666;2023-02-12T07:39:00;21.43;;;14.23;;
38615;SDS011;24370;51.986;4.666;2023-02-12T07:41:30;23.80;;;12.73;;
38615;SDS011;24370;51.986;4.666;2023-02-12T07:43:59;30.73;;;17.57;;
38615;SDS011;24370;51.986;4.666;2023-02-12T07:46:32;36.20;;;19.13;;
38615;SDS011;24370;51.986;4.666;2023-02-12T07:49:00;26.03;;;16.37;;
38615;SDS011;24370;51.986;4.666;2023-02-12T07:51:28;21.70;;;14.00;;
38615;SDS011;24370;51.986;4.666;2023-02-12T07:53:54;18.33;;;12.23;;
38615;SDS011;24370;51.986;4.666;2023-02-12T07:56:21;21.57;;;13.10;;
38615;SDS011;24370;51.986;4.666;2023-02-12T07:58:49;24.80;;;13.53;;
38615;SDS011;24370;51.986;4.666;2023-02-12T08:01:17;25.80;;;14.00;;
38615;SDS011;24370;51.986;4.666;2023-02-12T08:04:10;21.70;;;14.30;;
38615;SDS011;24370;51.986;4.666;2023-02-12T08:06:39;23.83;;;14.20;;
38615;SDS011;24370;51.986;4.666;2023-02-12T08:09:07;19.43;;;13.43;;
38615;SDS011;24370;51.986;4.666;2023-02-12T08:11:34;20.20;;;13.20;;
38615;SDS011;24370;51.986;4.666;2023-02-12T08:14:02;18.10;;;12.47;;
38615;SDS011;24370;51.986;4.666;2023-02-12T08:16:28;19.00;;;13.07;;
38615;SDS011;24370;51.986;4.666;2023-02-12T08:18:55;20.73;;;14.27;;
38615;SDS011;24370;51.986;4.666;2023-02-12T08:21:25;23.47;;;14.90;;
38615;SDS011;24370;51.986;4.666;2023-02-12T08:23:52;23.77;;;14.90;;
38615;SDS011;24370;51.986;4.666;2023-02-12T08:26:22;21.40;;;13.60;;
38615;SDS011;24370;51.986;4.666;2023-02-12T08:29:14;21.70;;;12.60;;
38615;SDS011;24370;51.986;4.666;2023-02-12T08:31:41;19.87;;;12.50;;
38615;SDS011;24370;51.986;4.666;2023-02-12T08:34:18;17.83;;;12.30;;
38615;SDS011;24370;51.986;4.666;2023-02-12T08:36:48;20.13;;;12.63;;
38615;SDS011;24370;51.986;4.666;2023-02-12T08:39:16;21.40;;;13.00;;
38615;SDS011;24370;51.986;4.666;2023-02-12T08:41:42;16.77;;;11.67;;
38615;SDS011;24370;51.986;4.666;2023-02-12T08:44:08;18.80;;;11.60;;
38615;SDS011;24370;51.986;4.666;2023-02-12T08:46:35;18.47;;;12.07;;
38615;SDS011;24370;51.986;4.666;2023-02-12T08:49:03;21.67;;;14.77;;
38615;SDS011;24370;51.986;4.666;2023-02-12T08:51:37;26.80;;;16.60;;
38615;SDS011;24370;51.986;4.666;2023-02-12T08:54:05;26.87;;;17.17;;
38615;SDS011;24370;51.986;4.666;2023-02-12T08:56:32;23.73;;;15.13;;
38615;SDS011;24370;51.986;4.666;2023-02-12T08:59:00;22.57;;;14.30;;
38615;SDS011;24370;51.986;4.666;2023-02-12T09:01:29;22.87;;;14.07;;
38615;SDS011;24370;51.986;4.666;2023-02-12T09:03:57;17.67;;;12.03;;
38615;SDS011;24370;51.986;4.666;2023-02-12T09:06:23;19.87;;;12.53;;
38615;SDS011;24370;51.986;4.666;2023-02-12T09:08:51;21.77;;;12.77;;
38615;SDS011;24370;51.986;4.666;2023-02-12T09:11:23;21.67;;;12.83;;
38615;SDS011;24370;51.986;4.666;2023-02-12T09:13:57;19.97;;;12.53;;
38615;SDS011;24370;51.986;4.666;2023-02-12T09:16:26;19.37;;;12.63;;
38615;SDS011;24370;51.986;4.666;2023-02-12T09:18:52;20.57;;;13.23;;
38615;SDS011;24370;51.986;4.666;2023-02-12T09:21:18;17.63;;;12.63;;
38615;SDS011;24370;51.986;4.666;2023-02-12T09:23:45;20.00;;;11.60;;
38615;SDS011;24370;51.986;4.666;2023-02-12T09:26:11;21.27;;;12.17;;
38615;SDS011;24370;51.986;4.666;2023-02-12T09:28:39;22.57;;;15.10;;
38615;SDS011;24370;51.986;4.666;2023-02-12T09:31:10;20.47;;;12.33;;
38615;SDS011;24370;51.986;4.666;2023-02-12T09:33:37;20.53;;;12.97;;
38615;SDS011;24370;51.986;4.666;2023-02-12T09:36:03;20.40;;;12.90;;
38615;SDS011;24370;51.986;4.666;2023-02-12T09:38:31;23.70;;;12.70;;
38615;SDS011;24370;51.986;4.666;2023-02-12T09:44:44;19.07;;;12.60;;
38615;SDS011;24370;51.986;4.666;2023-02-12T09:47:08;18.27;;;12.53;;
38615;SDS011;24370;51.986;4.666;2023-02-12T09:49:53;20.10;;;13.03;;
38615;SDS011;24370;51.986;4.666;2023-02-12T09:52:27;21.07;;;13.20;;
38615;SDS011;24370;51.986;4.666;2023-02-12T09:54:53;18.10;;;12.67;;
38615;SDS011;24370;51.986;4.666;2023-02-12T09:57:23;18.53;;;12.53;;
38615;SDS011;24370;51.986;4.666;2023-02-12T09:59:56;19.93;;;12.57;;
38615;SDS011;24370;51.986;4.666;2023-02-12T10:02:24;15.17;;;11.83;;
38615;SDS011;24370;51.986;4.666;2023-02-12T10:04:51;18.63;;;13.23;;
38615;SDS011;24370;51.986;4.666;2023-02-12T10:15:14;21.30;;;13.07;;
38615;SDS011;24370;51.986;4.666;2023-02-12T10:25:55;18.53;;;11.87;;
38615;SDS011;24370;51.986;4.666;2023-02-12T10:39:11;22.80;;;13.30;;
38615;SDS011;24370;51.986;4.666;2023-02-12T10:41:38;20.57;;;11.30;;
38615;SDS011;24370;51.986;4.666;2023-02-12T10:44:08;19.93;;;12.77;;
38615;SDS011;24370;51.986;4.666;2023-02-12T10:46:35;20.10;;;12.10;;
38615;SDS011;24370;51.986;4.666;2023-02-12T10:49:01;28.23;;;13.53;;
38615;SDS011;24370;51.986;4.666;2023-02-12T10:59:50;21.80;;;13.17;;
38615;SDS011;24370;51.986;4.666;2023-02-12T11:02:25;21.03;;;13.43;;
38615;SDS011;24370;51.986;4.666;2023-02-12T11:04:55;21.77;;;13.20;;
38615;SDS011;24370;51.986;4.666;2023-02-12T11:07:22;20.77;;;13.37;;
38615;SDS011;24370;51.986;4.666;2023-02-12T11:09:49;22.07;;;13.40;;
38615;SDS011;24370;51.986;4.666;2023-02-12T11:15:13;18.70;;;12.40;;
38615;SDS011;24370;51.986;4.666;2023-02-12T11:17:41;20.07;;;14.27;;
38615;SDS011;24370;51.986;4.666;2023-02-12T11:22:57;18.53;;;12.80;;
38615;SDS011;24370;51.986;4.666;2023-02-12T11:25:35;19.87;;;12.90;;
38615;SDS011;24370;51.986;4.666;2023-02-12T11:28:15;21.57;;;13.30;;
38615;SDS011;24370;51.986;4.666;2023-02-12T11:33:37;20.63;;;13.07;;
38615;SDS011;24370;51.986;4.666;2023-02-12T11:36:19;24.20;;;13.73;;
38615;SDS011;24370;51.986;4.666;2023-02-12T11:38:49;18.80;;;13.03;;
38615;SDS011;24370;51.986;4.666;2023-02-12T11:41:23;22.57;;;13.33;;
38615;SDS011;24370;51.986;4.666;2023-02-12T11:44:01;21.93;;;12.33;;
38615;SDS011;24370;51.986;4.666;2023-02-12T11:46:34;20.20;;;12.87;;
38615;SDS011;24370;51.986;4.666;2023-02-12T11:49:00;20.60;;;13.57;;
38615;SDS011;24370;51.986;4.666;2023-02-12T11:51:27;23.53;;;13.10;;
38615;SDS011;24370;51.986;4.666;2023-02-12T11:53:57;22.70;;;13.50;;
38615;SDS011;24370;51.986;4.666;2023-02-12T11:56:24;17.50;;;12.03;;
38615;SDS011;24370;51.986;4.666;2023-02-12T11:59:17;19.87;;;12.70;;
38615;SDS011;24370;51.986;4.666;2023-02-12T12:01:55;20.90;;;12.83;;
38615;SDS011;24370;51.986;4.666;2023-02-12T12:04:26;21.27;;;12.50;;
38615;SDS011;24370;51.986;4.666;2023-02-12T12:07:00;21.37;;;12.50;;
38615;SDS011;24370;51.986;4.666;2023-02-12T12:09:40;22.20;;;12.30;;
38615;SDS011;24370;51.986;4.666;2023-02-12T12:12:13;19.43;;;12.17;;
38615;SDS011;24370;51.986;4.666;2023-02-12T12:14:53;20.43;;;12.37;;
38615;SDS011;24370;51.986;4.666;2023-02-12T12:21:00;22.30;;;12.60;;
38615;SDS011;24370;51.986;4.666;2023-02-12T12:23:42;17.33;;;11.63;;
38615;SDS011;24370;51.986;4.666;2023-02-12T12:26:17;29.20;;;12.50;;
38615;SDS011;24370;51.986;4.666;2023-02-12T12:28:47;21.67;;;12.93;;
38615;SDS011;24370;51.986;4.666;2023-02-12T12:31:20;24.02;;;12.63;;
38615;SDS011;24370;51.986;4.666;2023-02-12T12:50:20;18.87;;;10.73;;
38615;SDS011;24370;51.986;4.666;2023-02-12T12:53:04;17.37;;;9.80;;
38615;SDS011;24370;51.986;4.666;2023-02-12T12:56:01;15.40;;;8.63;;
38615;SDS011;24370;51.986;4.666;2023-02-12T13:03:38;13.40;;;8.37;;
38615;SDS011;24370;51.986;4.666;2023-02-12T13:09:45;12.77;;;7.10;;
38615;SDS011;24370;51.986;4.666;2023-02-12T13:12:27;14.43;;;8.70;;
38615;SDS011;24370;51.986;4.666;2023-02-12T13:15:03;13.73;;;9.60;;
38615;SDS011;24370;51.986;4.666;2023-02-12T13:17:40;15.20;;;8.07;;
38615;SDS011;24370;51.986;4.666;2023-02-12T13:22:59;15.57;;;8.37;;
38615;SDS011;24370;51.986;4.666;2023-02-12T13:28:14;13.50;;;8.97;;
38615;SDS011;24370;51.986;4.666;2023-02-12T13:30:48;12.73;;;8.30;;
38615;SDS011;24370;51.986;4.666;2023-02-12T13:33:23;12.97;;;8.40;;
38615;SDS011;24370;51.986;4.666;2023-02-12T13:35:53;13.13;;;8.40;;
38615;SDS011;24370;51.986;4.666;2023-02-12T13:38:29;15.10;;;8.57;;
38615;SDS011;24370;51.986;4.666;2023-02-12T13:41:02;15.07;;;9.17;;
38615;SDS011;24370;51.986;4.666;2023-02-12T13:43:38;14.00;;;8.80;;
38615;SDS011;24370;51.986;4.666;2023-02-12T14:03:24;19.87;;;10.23;;
38615;SDS011;24370;51.986;4.666;2023-02-12T14:08:38;18.40;;;11.63;;
38615;SDS011;24370;51.986;4.666;2023-02-12T14:11:07;22.80;;;11.43;;
38615;SDS011;24370;51.986;4.666;2023-02-12T14:13:43;16.97;;;10.40;;
38615;SDS011;24370;51.986;4.666;2023-02-12T14:16:20;23.27;;;10.77;;
38615;SDS011;24370;51.986;4.666;2023-02-12T14:26:59;19.90;;;11.87;;
38615;SDS011;24370;51.986;4.666;2023-02-12T14:29:26;23.93;;;12.20;;
38615;SDS011;24370;51.986;4.666;2023-02-12T14:31:51;20.30;;;12.60;;
38615;SDS011;24370;51.986;4.666;2023-02-12T14:36:45;21.73;;;12.17;;
38615;SDS011;24370;51.986;4.666;2023-02-12T14:41:44;22.97;;;12.77;;
38615;SDS011;24370;51.986;4.666;2023-02-12T14:46:50;22.17;;;12.80;;
38615;SDS011;24370;51.986;4.666;2023-02-12T14:49:35;24.03;;;13.60;;
38615;SDS011;24370;51.986;4.666;2023-02-12T14:57:12;22.90;;;13.23;;
38615;SDS011;24370;51.986;4.666;2023-02-12T14:59:49;25.43;;;14.33;;
38615;SDS011;24370;51.986;4.666;2023-02-12T15:02:28;26.70;;;14.10;;
38615;SDS011;24370;51.986;4.666;2023-02-12T15:05:19;28.87;;;15.73;;
38615;SDS011;24370;51.986;4.666;2023-02-12T15:07:58;36.47;;;18.93;;
38615;SDS011;24370;51.986;4.666;2023-02-12T15:10:28;32.30;;;16.10;;
38615;SDS011;24370;51.986;4.666;2023-02-12T15:15:48;25.03;;;14.87;;
38615;SDS011;24370;51.986;4.666;2023-02-12T15:20:59;27.73;;;15.50;;
38615;SDS011;24370;51.986;4.666;2023-02-12T15:23:47;29.00;;;16.20;;
38615;SDS011;24370;51.986;4.666;2023-02-12T15:26:24;36.00;;;19.27;;
38615;SDS011;24370;51.986;4.666;2023-02-12T15:28:52;35.17;;;19.40;;
38615;SDS011;24370;51.986;4.666;2023-02-12T15:31:19;37.47;;;18.47;;
38615;SDS011;24370;51.986;4.666;2023-02-12T15:33:49;25.80;;;14.70;;
38615;SDS011;24370;51.986;4.666;2023-02-12T15:36:22;31.90;;;18.80;;
38615;SDS011;24370;51.986;4.666;2023-02-12T15:38:53;30.63;;;17.97;;
38615;SDS011;24370;51.986;4.666;2023-02-12T15:41:42;27.17;;;15.98;;
38615;SDS011;24370;51.986;4.666;2023-02-12T15:44:26;31.43;;;17.67;;
38615;SDS011;24370;51.986;4.666;2023-02-12T15:47:01;30.33;;;17.47;;
38615;SDS011;24370;51.986;4.666;2023-02-12T15:49:36;30.60;;;17.37;;
38615;SDS011;24370;51.986;4.666;2023-02-12T15:52:26;28.90;;;15.50;;
38615;SDS011;24370;51.986;4.666;2023-02-12T15:54:57;30.67;;;16.40;;
38615;SDS011;24370;51.986;4.666;2023-02-12T15:57:22;29.13;;;15.87;;
38615;SDS011;24370;51.986;4.666;2023-02-12T15:59:49;29.43;;;14.90;;
38615;SDS011;24370;51.986;4.666;2023-02-12T16:02:17;24.47;;;13.23;;
38615;SDS011;24370;51.986;4.666;2023-02-12T16:04:51;24.87;;;14.03;;
38615;SDS011;24370;51.986;4.666;2023-02-12T16:07:17;27.97;;;15.10;;
38615;SDS011;24370;51.986;4.666;2023-02-12T16:09:43;28.70;;;15.50;;
38615;SDS011;24370;51.986;4.666;2023-02-12T16:12:12;27.97;;;15.40;;
38615;SDS011;24370;51.986;4.666;2023-02-12T16:14:40;28.10;;;15.03;;
38615;SDS011;24370;51.986;4.666;2023-02-12T16:17:21;32.57;;;16.60;;
38615;SDS011;24370;51.986;4.666;2023-02-12T16:19:59;30.83;;;15.67;;
38615;SDS011;24370;51.986;4.666;2023-02-12T16:22:27;32.90;;;17.13;;
38615;SDS011;24370;51.986;4.666;2023-02-12T16:24:57;33.37;;;18.47;;
38615;SDS011;24370;51.986;4.666;2023-02-12T16:27:27;29.27;;;17.13;;
38615;SDS011;24370;51.986;4.666;2023-02-12T16:29:57;34.00;;;17.52;;
38615;SDS011;24370;51.986;4.666;2023-02-12T16:48:05;33.83;;;17.03;;
38615;SDS011;24370;51.986;4.666;2023-02-12T16:50:44;32.97;;;16.97;;
38615;SDS011;24370;51.986;4.666;2023-02-12T16:53:22;37.13;;;19.37;;
38615;SDS011;24370;51.986;4.666;2023-02-12T16:55:54;32.67;;;17.60;;
38615;SDS011;24370;51.986;4.666;2023-02-12T16:58:19;33.13;;;18.07;;
38615;SDS011;24370;51.986;4.666;2023-02-12T17:00:45;32.13;;;16.77;;
38615;SDS011;24370;51.986;4.666;2023-02-12T17:03:14;37.20;;;18.40;;
38615;SDS011;24370;51.986;4.666;2023-02-12T17:05:40;33.87;;;18.97;;
38615;SDS011;24370;51.986;4.666;2023-02-12T17:08:14;36.63;;;18.13;;
38615;SDS011;24370;51.986;4.666;2023-02-12T17:10:41;31.27;;;16.80;;
38615;SDS011;24370;51.986;4.666;2023-02-12T17:13:08;34.63;;;17.67;;
38615;SDS011;24370;51.986;4.666;2023-02-12T17:15:39;38.07;;;18.13;;
38615;SDS011;24370;51.986;4.666;2023-02-12T17:18:09;41.00;;;20.03;;
38615;SDS011;24370;51.986;4.666;2023-02-12T17:20:38;33.53;;;17.80;;
38615;SDS011;24370;51.986;4.666;2023-02-12T17:23:04;40.93;;;19.97;;
38615;SDS011;24370;51.986;4.666;2023-02-12T17:25:30;35.67;;;18.83;;
38615;SDS011;24370;51.986;4.666;2023-02-12T17:27:57;39.67;;;20.07;;
38615;SDS011;24370;51.986;4.666;2023-02-12T17:30:23;42.77;;;19.40;;
38615;SDS011;24370;51.986;4.666;2023-02-12T17:32:50;37.20;;;19.30;;
38615;SDS011;24370;51.986;4.666;2023-02-12T17:35:15;36.00;;;18.13;;
38615;SDS011;24370;51.986;4.666;2023-02-12T17:37:41;36.03;;;18.53;;
38615;SDS011;24370;51.986;4.666;2023-02-12T17:40:06;40.83;;;19.83;;
38615;SDS011;24370;51.986;4.666;2023-02-12T17:42:32;39.93;;;19.40;;
38615;SDS011;24370;51.986;4.666;2023-02-12T17:44:58;36.43;;;18.87;;
38615;SDS011;24370;51.986;4.666;2023-02-12T17:47:23;38.07;;;19.77;;
38615;SDS011;24370;51.986;4.666;2023-02-12T17:49:48;39.13;;;20.40;;
38615;SDS011;24370;51.986;4.666;2023-02-12T17:52:14;37.87;;;18.93;;
38615;SDS011;24370;51.986;4.666;2023-02-12T17:54:42;39.63;;;18.97;;